createdAt,value
2019-02-24T00:00:14.788Z,60.99
2019-02-24T00:01:14.979Z,60.24
2019-02-24T00:02:14.783Z,60.13
2019-02-24T00:03:14.751Z,59.40
2019-02-24T00:04:14.760Z,59.40
2019-02-24T00:05:14.735Z,60.03
2019-02-24T00:06:14.715Z,59.71
2019-02-24T00:07:14.706Z,59.40
2019-02-24T00:08:14.706Z,59.30
2019-02-24T00:09:14.677Z,59.40
2019-02-24T00:10:14.719Z,59.40
2019-02-24T00:11:14.668Z,59.09
2019-02-24T00:12:14.647Z,58.78
2019-02-24T00:13:14.637Z,59.40
2019-02-24T00:14:14.638Z,59.40
2019-02-24T00:15:14.709Z,59.19
2019-02-24T00:16:14.665Z,59.09
2019-02-24T00:17:14.628Z,58.26
2019-02-24T00:18:14.587Z,59.30
2019-02-24T00:19:14.584Z,59.40
2019-02-24T00:20:14.568Z,58.98
2019-02-24T00:21:14.557Z,59.50
2019-02-24T00:22:14.692Z,59.09
2019-02-24T00:23:14.538Z,59.82
2019-02-24T00:24:14.516Z,58.67
2019-02-24T00:25:14.520Z,58.67
2019-02-24T00:26:14.499Z,58.81
2019-02-24T00:27:14.485Z,58.67
2019-02-24T00:28:14.492Z,58.57
2019-02-24T00:29:14.477Z,58.26
2019-02-24T00:30:14.454Z,58.15
2019-02-24T00:31:14.445Z,57.22
2019-02-24T00:32:14.445Z,57.74
2019-02-24T00:33:14.424Z,57.32
2019-02-24T00:34:14.441Z,57.32
2019-02-24T00:35:14.401Z,57.22
2019-02-24T00:36:14.423Z,57.22
2019-02-24T00:37:14.383Z,57.32
2019-02-24T00:38:14.361Z,57.22
2019-02-24T00:39:14.361Z,57.43
2019-02-24T00:40:14.369Z,58.36
2019-02-24T00:41:14.340Z,57.32
2019-02-24T00:42:14.332Z,57.74
2019-02-24T00:43:14.326Z,57.01
2019-02-24T00:44:14.297Z,57.32
2019-02-24T00:45:14.286Z,57.01
2019-02-24T00:46:14.294Z,57.22
2019-02-24T00:47:14.293Z,56.91
2019-02-24T00:48:14.263Z,57.53
2019-02-24T00:49:14.247Z,57.43
2019-02-24T00:50:14.233Z,57.32
2019-02-24T00:51:14.254Z,57.12
2019-02-24T00:52:14.228Z,57.45
2019-02-24T00:53:14.203Z,57.56
2019-02-24T00:54:14.193Z,57.22
2019-02-24T00:55:14.182Z,57.12
2019-02-24T00:56:14.170Z,57.24
2019-02-24T00:57:14.171Z,57.22
2019-02-24T00:58:16.410Z,57.24
2019-02-24T00:59:14.133Z,57.01
2019-02-24T01:00:14.156Z,57.12
2019-02-24T01:01:14.112Z,57.14
2019-02-24T01:02:14.114Z,57.87
2019-02-24T01:03:14.086Z,56.93
2019-02-24T01:04:14.079Z,57.01
2019-02-24T01:05:14.122Z,57.14
2019-02-24T01:06:14.055Z,56.73
2019-02-24T01:07:14.050Z,57.24
2019-02-24T01:08:14.054Z,57.04
2019-02-24T01:09:14.027Z,57.12
2019-02-24T01:10:14.018Z,56.70
2019-02-24T01:11:14.019Z,57.12
2019-02-24T01:12:14.039Z,56.41
2019-02-24T01:13:13.988Z,55.48
2019-02-24T01:14:14.004Z,54.96
2019-02-24T01:15:13.960Z,55.56
2019-02-24T01:16:13.948Z,55.04
2019-02-24T01:17:13.949Z,54.75
2019-02-24T01:18:14.004Z,55.77
2019-02-24T01:19:13.929Z,55.56
2019-02-24T01:20:13.925Z,55.77
2019-02-24T01:21:13.900Z,55.77
2019-02-24T01:22:13.895Z,54.83
2019-02-24T01:23:13.877Z,55.69
2019-02-24T01:24:13.856Z,55.90
2019-02-24T01:25:13.872Z,56.00
2019-02-24T01:26:13.861Z,56.41
2019-02-24T01:27:13.831Z,55.98
2019-02-24T01:28:13.834Z,56.31
2019-02-24T01:29:13.813Z,55.27
2019-02-24T01:30:13.814Z,55.58
2019-02-24T01:31:13.792Z,56.10
2019-02-24T01:32:13.841Z,56.31
2019-02-24T01:33:13.779Z,55.90
2019-02-24T01:34:13.762Z,55.90
2019-02-24T01:35:13.771Z,55.48
2019-02-24T01:36:13.732Z,55.90
2019-02-24T01:37:13.718Z,55.07
2019-02-24T01:38:13.806Z,54.86
2019-02-24T01:39:13.713Z,54.65
2019-02-24T01:40:13.720Z,54.86
2019-02-24T01:41:13.694Z,55.27
2019-02-24T01:42:13.683Z,54.96
2019-02-24T01:43:13.649Z,54.96
2019-02-24T01:44:13.657Z,55.17
2019-02-24T01:45:13.651Z,54.96
2019-02-24T01:46:13.696Z,55.58
2019-02-24T01:47:13.628Z,54.96
2019-02-24T01:48:13.630Z,55.27
2019-02-24T01:49:13.600Z,55.07
2019-02-24T01:50:13.645Z,54.75
2019-02-24T01:51:13.581Z,54.44
2019-02-24T01:52:13.600Z,54.13
2019-02-24T01:53:13.552Z,54.55
2019-02-24T01:54:13.562Z,54.75
2019-02-24T01:55:13.532Z,54.86
2019-02-24T01:56:13.572Z,54.44
2019-02-24T01:57:13.497Z,55.27
2019-02-24T01:58:13.510Z,54.75
2019-02-24T01:59:13.507Z,54.86
2019-02-24T02:00:13.486Z,55.38
2019-02-24T02:01:13.461Z,54.96
2019-02-24T02:02:13.523Z,54.86
2019-02-24T02:03:13.452Z,55.82
2019-02-24T02:04:13.436Z,55.30
2019-02-24T02:05:13.414Z,55.38
2019-02-24T02:06:13.415Z,54.78
2019-02-24T02:07:13.476Z,54.96
2019-02-24T02:08:13.399Z,54.26
2019-02-24T02:09:13.399Z,54.86
2019-02-24T02:10:13.369Z,54.47
2019-02-24T02:11:13.394Z,54.34
2019-02-24T02:12:13.393Z,54.44
2019-02-24T02:13:13.342Z,54.13
2019-02-24T02:14:13.358Z,54.24
2019-02-24T02:15:13.323Z,53.72
2019-02-24T02:16:13.306Z,53.82
2019-02-24T02:17:13.297Z,54.13
2019-02-24T02:18:13.333Z,53.72
2019-02-24T02:19:13.289Z,54.34
2019-02-24T02:20:13.249Z,53.61
2019-02-24T02:21:13.317Z,53.61
2019-02-24T02:22:13.227Z,53.64
2019-02-24T02:23:13.232Z,53.64
2019-02-24T02:24:13.245Z,53.92
2019-02-24T02:25:13.195Z,53.72
2019-02-24T02:26:13.201Z,54.26
2019-02-24T02:27:13.173Z,53.72
2019-02-24T02:28:13.165Z,53.51
2019-02-24T02:29:13.154Z,53.74
2019-02-24T02:30:13.186Z,53.95
2019-02-24T02:31:13.141Z,54.99
2019-02-24T02:32:13.124Z,54.86
2019-02-24T02:33:13.333Z,53.64
2019-02-24T02:34:13.096Z,53.92
2019-02-24T02:35:13.099Z,54.36
2019-02-24T02:36:13.097Z,53.53
2019-02-24T02:37:13.073Z,53.61
2019-02-24T02:38:13.109Z,53.72
2019-02-24T02:39:13.042Z,54.16
2019-02-24T02:40:13.039Z,54.75
2019-02-24T02:41:13.028Z,55.48
2019-02-24T02:42:13.011Z,53.43
2019-02-24T02:43:13.019Z,54.34
2019-02-24T02:44:12.994Z,55.40
2019-02-24T02:45:12.984Z,54.68
2019-02-24T02:46:12.989Z,54.99
2019-02-24T02:47:12.960Z,55.01
2019-02-24T02:48:12.963Z,55.43
2019-02-24T02:49:12.937Z,55.63
2019-02-24T02:50:12.932Z,56.16
2019-02-24T02:51:12.920Z,56.16
2019-02-24T02:52:12.928Z,56.78
2019-02-24T02:53:12.915Z,56.05
2019-02-24T02:54:12.888Z,56.47
2019-02-24T02:55:12.881Z,56.68
2019-02-24T02:56:13.225Z,56.26
2019-02-24T02:57:12.853Z,56.37
2019-02-24T02:58:12.847Z,56.37
2019-02-24T02:59:12.846Z,56.16
2019-02-24T03:00:12.843Z,56.49
2019-02-24T03:01:12.810Z,55.84
2019-02-24T03:02:12.805Z,55.74
2019-02-24T03:03:12.798Z,54.91
2019-02-24T03:04:12.790Z,55.95
2019-02-24T03:05:12.790Z,54.91
2019-02-24T03:06:12.756Z,55.74
2019-02-24T03:07:12.747Z,55.53
2019-02-24T03:08:12.774Z,55.32
2019-02-24T03:09:12.757Z,54.91
2019-02-24T03:10:12.713Z,54.91
2019-02-24T03:11:12.710Z,54.91
2019-02-24T03:12:12.707Z,54.91
2019-02-24T03:13:12.707Z,54.80
2019-02-24T03:14:12.690Z,54.70
2019-02-24T03:15:12.673Z,55.32
2019-02-24T03:16:12.653Z,55.01
2019-02-24T03:17:12.639Z,54.08
2019-02-24T03:18:12.707Z,54.80
2019-02-24T03:19:12.638Z,54.39
2019-02-24T03:20:12.626Z,54.49
2019-02-24T03:21:12.615Z,55.01
2019-02-24T03:22:12.604Z,55.11
2019-02-24T03:23:12.581Z,54.60
2019-02-24T03:24:12.585Z,55.11
2019-02-24T03:25:12.581Z,54.28
2019-02-24T03:26:12.550Z,53.66
2019-02-24T03:27:12.536Z,55.01
2019-02-24T03:28:12.524Z,54.91
2019-02-24T03:29:12.516Z,54.28
2019-02-24T03:30:12.532Z,53.56
2019-02-24T03:31:12.535Z,53.45
2019-02-24T03:32:12.483Z,54.39
2019-02-24T03:33:12.477Z,54.08
2019-02-24T03:34:12.472Z,54.49
2019-02-24T03:35:12.458Z,55.22
2019-02-24T03:36:12.506Z,54.80
2019-02-24T03:37:12.546Z,53.66
2019-02-24T03:38:12.443Z,54.49
2019-02-24T03:39:12.409Z,54.28
2019-02-24T03:40:12.410Z,53.77
2019-02-24T03:41:12.400Z,55.01
2019-02-24T03:42:12.391Z,54.80
2019-02-24T03:43:12.414Z,53.87
2019-02-24T03:44:12.362Z,53.87
2019-02-24T03:45:12.348Z,53.25
2019-02-24T03:46:12.365Z,54.49
2019-02-24T03:47:12.328Z,54.08
2019-02-24T03:48:12.319Z,53.56
2019-02-24T03:49:12.333Z,53.14
2019-02-24T03:50:12.309Z,52.93
2019-02-24T03:51:12.289Z,53.66
2019-02-24T03:52:12.273Z,53.25
2019-02-24T03:53:12.277Z,54.39
2019-02-24T03:54:12.286Z,54.21
2019-02-24T03:55:12.272Z,54.49
2019-02-24T03:56:12.241Z,54.28
2019-02-24T03:57:12.253Z,53.89
2019-02-24T03:58:12.222Z,54.72
2019-02-24T03:59:15.249Z,53.79
2019-02-24T04:00:12.207Z,54.83
2019-02-24T04:01:12.182Z,54.52
2019-02-24T04:02:12.171Z,54.62
2019-02-24T04:03:12.172Z,55.04
2019-02-24T04:04:12.179Z,54.75
2019-02-24T04:05:12.139Z,54.93
2019-02-24T04:06:12.142Z,55.16
2019-02-24T04:07:12.156Z,55.04
2019-02-24T04:08:12.110Z,55.04
2019-02-24T04:09:12.126Z,53.58
2019-02-24T04:10:12.084Z,54.83
2019-02-24T04:11:12.085Z,54.83
2019-02-24T04:12:12.066Z,54.85
2019-02-24T04:13:12.059Z,54.96
2019-02-24T04:14:12.081Z,54.31
2019-02-24T04:15:12.034Z,54.31
2019-02-24T04:16:12.022Z,54.83
2019-02-24T04:17:12.028Z,54.85
2019-02-24T04:18:11.999Z,54.83
2019-02-24T04:19:12.009Z,54.85
2019-02-24T04:20:12.074Z,55.24
2019-02-24T04:21:11.989Z,54.96
2019-02-24T04:22:11.959Z,55.16
2019-02-24T04:23:11.961Z,54.96
2019-02-24T04:24:11.967Z,55.27
2019-02-24T04:25:11.933Z,54.64
2019-02-24T04:26:11.936Z,54.96
2019-02-24T04:27:11.911Z,54.96
2019-02-24T04:28:11.936Z,54.33
2019-02-24T04:29:11.925Z,53.71
2019-02-24T04:30:11.888Z,54.44
2019-02-24T04:31:11.879Z,54.02
2019-02-24T04:32:11.866Z,52.85
2019-02-24T04:33:11.845Z,52.33
2019-02-24T04:34:11.920Z,52.95
2019-02-24T04:35:11.845Z,53.81
2019-02-24T04:36:11.816Z,53.48
2019-02-24T04:37:11.822Z,52.85
2019-02-24T04:38:11.797Z,52.02
2019-02-24T04:39:11.787Z,53.16
2019-02-24T04:40:11.797Z,52.44
2019-02-24T04:41:11.766Z,52.54
2019-02-24T04:42:11.755Z,52.98
2019-02-24T04:43:11.767Z,53.50
2019-02-24T04:44:11.735Z,53.69
2019-02-24T04:45:11.730Z,54.41
2019-02-24T04:46:11.728Z,53.40
2019-02-24T04:47:11.722Z,54.13
2019-02-24T04:48:11.697Z,52.98
2019-02-24T04:49:11.693Z,54.54
2019-02-24T04:50:11.689Z,53.71
2019-02-24T04:51:11.659Z,53.63
2019-02-24T04:52:11.651Z,53.74
2019-02-24T04:53:11.644Z,53.74
2019-02-24T04:54:11.658Z,53.63
2019-02-24T04:55:11.620Z,53.42
2019-02-24T04:56:11.612Z,53.00
2019-02-24T04:57:11.629Z,54.05
2019-02-24T04:58:11.589Z,54.44
2019-02-24T04:59:11.586Z,54.54
2019-02-24T05:00:11.625Z,53.50
2019-02-24T05:01:11.554Z,53.94
2019-02-24T05:02:19.391Z,53.81
2019-02-24T05:03:11.534Z,53.84
2019-02-24T05:04:11.550Z,54.46
2019-02-24T05:05:19.532Z,53.84
2019-02-24T05:06:11.501Z,54.46
2019-02-24T05:07:11.548Z,54.46
2019-02-24T05:08:11.480Z,53.94
2019-02-24T05:09:11.468Z,53.84
2019-02-24T05:10:11.505Z,53.94
2019-02-24T05:11:11.467Z,54.88
2019-02-24T05:12:11.443Z,53.74
2019-02-24T05:13:11.494Z,54.46
2019-02-24T05:14:11.439Z,54.91
2019-02-24T05:15:11.428Z,55.19
2019-02-24T05:16:11.422Z,55.09
2019-02-24T05:17:11.416Z,53.63
2019-02-24T05:18:11.374Z,54.07
2019-02-24T05:19:11.369Z,54.05
2019-02-24T05:20:11.360Z,53.76
2019-02-24T05:22:34.563Z,54.88
2019-02-24T05:23:34.596Z,54.91
2019-02-24T05:24:34.547Z,53.63
2019-02-24T05:25:34.525Z,54.69
2019-02-24T05:26:34.562Z,54.59
2019-02-24T05:28:02.423Z,54.25
2019-02-24T05:28:34.485Z,54.91
2019-02-24T05:29:34.478Z,55.09
2019-02-24T05:30:34.508Z,55.01
2019-02-24T05:31:34.462Z,54.91
2019-02-24T05:32:34.448Z,55.53
2019-02-24T05:33:34.434Z,54.91
2019-02-24T05:34:34.428Z,55.11
2019-02-24T05:35:34.409Z,55.84
2019-02-24T05:36:42.590Z,55.14
2019-02-24T05:37:34.417Z,56.29
2019-02-24T05:38:34.383Z,55.87
2019-02-24T05:39:34.394Z,56.60
2019-02-24T05:40:34.380Z,55.76
2019-02-24T05:42:51.086Z,56.29
2019-02-24T05:43:51.161Z,55.90
2019-02-24T05:44:51.045Z,56.29
2019-02-24T05:45:50.997Z,57.01
2019-02-24T05:46:51.032Z,56.39
2019-02-24T05:47:51.003Z,56.83
2019-02-24T05:48:50.975Z,57.43
2019-02-24T05:49:51.101Z,57.15
2019-02-24T05:50:50.929Z,57.87
2019-02-24T05:51:50.916Z,57.35
2019-02-24T05:52:50.928Z,58.18
2019-02-24T05:53:51.132Z,58.63
2019-02-24T05:54:51.912Z,58.22
2019-02-24T05:55:51.065Z,58.94
2019-02-24T05:56:50.865Z,57.35
2019-02-24T05:57:50.858Z,57.98
2019-02-24T05:58:50.847Z,57.28
2019-02-24T05:59:55.290Z,57.90
2019-02-24T06:00:50.824Z,58.73
2019-02-24T06:01:50.939Z,58.94
2019-02-24T06:02:50.809Z,57.48
2019-02-24T06:03:50.803Z,58.08
2019-02-24T06:04:50.784Z,58.11
2019-02-24T06:05:50.885Z,57.46
2019-02-24T06:06:50.782Z,57.46
2019-02-24T06:07:50.759Z,56.93
2019-02-24T06:08:50.742Z,56.93
2019-02-24T06:09:50.772Z,57.07
2019-02-24T06:10:50.715Z,56.65
2019-02-24T06:11:50.723Z,57.46
2019-02-24T06:12:50.696Z,57.25
2019-02-24T06:13:52.167Z,56.41
2019-02-24T06:14:50.700Z,56.86
2019-02-24T06:15:50.664Z,54.96
2019-02-24T06:16:50.655Z,55.16
2019-02-24T06:17:50.738Z,55.90
2019-02-24T06:18:50.679Z,56.10
2019-02-24T06:19:50.627Z,56.10
2019-02-24T06:20:50.718Z,57.04
2019-02-24T06:21:50.619Z,57.07
2019-02-24T06:22:50.607Z,57.67
2019-02-24T06:23:50.585Z,58.53
2019-02-24T06:24:50.570Z,58.11
2019-02-24T06:25:50.624Z,58.01
2019-02-24T06:26:50.549Z,57.28
2019-02-24T06:27:50.576Z,58.34
2019-02-24T06:28:50.554Z,58.34
2019-02-24T06:29:50.602Z,57.48
2019-02-24T06:30:50.522Z,57.48
2019-02-24T06:31:50.609Z,57.28
2019-02-24T06:32:50.507Z,57.38
2019-02-24T06:33:50.482Z,57.69
2019-02-24T06:34:50.685Z,56.76
2019-02-24T06:35:50.461Z,57.38
2019-02-24T06:36:50.454Z,57.38
2019-02-24T06:37:50.443Z,56.34
2019-02-24T06:38:50.424Z,56.62
2019-02-24T06:39:50.419Z,56.34
2019-02-24T06:40:50.425Z,55.79
2019-02-24T06:41:50.397Z,56.34
2019-02-24T06:42:50.422Z,56.65
2019-02-24T06:43:50.401Z,57.48
2019-02-24T06:44:50.495Z,57.69
2019-02-24T06:45:50.349Z,57.28
2019-02-24T06:46:50.612Z,57.07
2019-02-24T06:47:50.331Z,57.07
2019-02-24T06:48:50.340Z,57.48
2019-02-24T06:49:50.507Z,57.17
2019-02-24T06:50:50.304Z,57.38
2019-02-24T06:51:50.290Z,57.48
2019-02-24T06:52:50.275Z,56.86
2019-02-24T06:53:50.285Z,57.38
2019-02-24T06:54:50.470Z,56.65
2019-02-24T06:55:50.247Z,56.96
2019-02-24T06:56:50.253Z,56.76
2019-02-24T06:57:50.224Z,56.76
2019-02-24T06:58:50.231Z,56.44
2019-02-24T06:59:50.206Z,56.86
2019-02-24T07:00:50.196Z,56.65
2019-02-24T07:01:50.180Z,56.54
2019-02-24T07:02:50.224Z,57.67
2019-02-24T07:03:50.162Z,57.04
2019-02-24T07:04:50.152Z,57.59
2019-02-24T07:05:50.168Z,56.93
2019-02-24T07:06:50.127Z,56.86
2019-02-24T07:07:50.118Z,57.28
2019-02-24T07:08:50.165Z,56.73
2019-02-24T07:09:50.138Z,56.62
2019-02-24T07:10:50.262Z,56.73
2019-02-24T07:11:50.073Z,55.79
2019-02-24T07:12:50.266Z,55.97
2019-02-24T07:13:50.059Z,55.66
2019-02-24T07:14:50.059Z,55.45
2019-02-24T07:15:50.201Z,55.24
2019-02-24T07:16:50.029Z,55.01
2019-02-24T07:17:50.016Z,54.49
2019-02-24T07:18:50.252Z,54.38
2019-02-24T07:19:49.997Z,54.17
2019-02-24T07:20:50.010Z,54.67
2019-02-24T07:23:15.882Z,55.19
2019-02-24T07:24:15.750Z,54.46
2019-02-24T07:25:15.674Z,53.84
2019-02-24T07:26:15.827Z,54.05
2019-02-24T07:27:15.645Z,54.05
2019-02-24T07:28:15.794Z,53.42
2019-02-24T07:29:15.605Z,53.08
2019-02-24T07:30:23.235Z,53.71
2019-02-24T07:31:16.777Z,52.77
2019-02-24T07:32:15.587Z,53.19
2019-02-24T07:33:15.572Z,52.98
2019-02-24T07:34:15.746Z,53.16
2019-02-24T07:35:15.560Z,51.94
2019-02-24T07:36:15.532Z,52.02
2019-02-24T07:37:15.538Z,52.33
2019-02-24T07:38:15.519Z,52.75
2019-02-24T07:39:15.668Z,52.54
2019-02-24T07:40:15.493Z,52.41
2019-02-24T07:41:15.479Z,50.12
2019-02-24T07:42:15.488Z,51.76
2019-02-24T07:43:15.489Z,50.52
2019-02-24T07:44:15.450Z,50.10
2019-02-24T07:45:15.642Z,50.18
2019-02-24T07:46:15.434Z,49.87
2019-02-24T07:47:15.434Z,48.72
2019-02-24T07:48:15.412Z,47.48
2019-02-24T07:49:15.398Z,46.94
2019-02-24T07:50:15.388Z,47.56
2019-02-24T07:51:15.625Z,47.96
2019-02-24T07:52:15.385Z,47.64
2019-02-24T07:53:15.361Z,47.96
2019-02-24T07:54:15.356Z,48.68
2019-02-24T07:55:15.339Z,48.99
2019-02-24T07:56:15.325Z,50.03
2019-02-24T07:57:15.341Z,50.76
2019-02-24T07:58:15.512Z,50.68
2019-02-24T07:59:15.291Z,51.07
2019-02-24T08:00:15.278Z,51.30
2019-02-24T08:01:15.273Z,51.20
2019-02-24T08:02:15.263Z,50.24
2019-02-24T08:03:15.275Z,50.86
2019-02-24T08:04:15.422Z,50.13
2019-02-24T08:05:15.228Z,49.62
2019-02-24T08:06:15.221Z,47.52
2019-02-24T08:07:15.209Z,48.14
2019-02-24T08:08:16.745Z,46.56
2019-02-24T08:09:15.201Z,45.32
2019-02-24T08:10:15.388Z,45.09
2019-02-24T08:11:15.164Z,44.68
2019-02-24T08:12:15.209Z,45.48
2019-02-24T08:13:15.359Z,45.38
2019-02-24T08:14:15.130Z,43.31
2019-02-24T08:15:15.119Z,43.52
2019-02-24T08:16:15.114Z,42.98
2019-02-24T08:17:22.976Z,42.46
2019-02-24T08:18:15.100Z,42.36
2019-02-24T08:19:15.209Z,42.24
2019-02-24T08:20:15.711Z,42.03
2019-02-24T08:21:15.065Z,42.24
2019-02-24T08:22:15.049Z,42.03
2019-02-24T08:23:15.057Z,41.51
2019-02-24T08:24:15.022Z,42.00
2019-02-24T08:25:15.123Z,41.51
2019-02-24T08:26:15.060Z,41.80
2019-02-24T08:27:14.996Z,41.80
2019-02-24T08:28:15.022Z,42.32
2019-02-24T08:29:15.107Z,42.11
2019-02-24T08:30:14.970Z,42.00
2019-02-24T08:31:14.957Z,40.75
2019-02-24T08:32:14.994Z,41.78
2019-02-24T08:33:14.934Z,41.25
2019-02-24T08:34:14.976Z,40.62
2019-02-24T08:35:14.985Z,41.04
2019-02-24T08:36:14.901Z,41.76
2019-02-24T08:37:14.993Z,41.55
2019-02-24T08:38:14.897Z,40.31
2019-02-24T08:39:14.952Z,41.35
2019-02-24T08:40:19.325Z,40.31
2019-02-24T08:41:15.777Z,41.85
2019-02-24T08:42:15.329Z,39.90
2019-02-24T08:43:14.990Z,40.62
2019-02-24T08:44:15.182Z,40.83
2019-02-24T08:45:15.204Z,40.21
2019-02-24T08:46:14.982Z,38.64
2019-02-24T08:47:14.784Z,37.51
2019-02-24T08:48:14.788Z,36.58
2019-02-24T08:49:14.801Z,38.95
2019-02-24T08:50:16.496Z,37.82
2019-02-24T08:51:15.733Z,38.13
2019-02-24T08:52:14.908Z,38.02
2019-02-24T08:53:15.618Z,38.13
2019-02-24T08:54:16.092Z,36.68
2019-02-24T08:55:14.912Z,35.94
2019-02-24T08:56:15.789Z,36.25
2019-02-24T08:57:25.131Z,36.35
2019-02-24T08:58:18.056Z,37.78
2019-02-24T08:59:24.826Z,37.99
2019-02-24T09:00:19.194Z,38.20
2019-02-24T09:01:16.131Z,37.68
2019-02-24T09:02:16.341Z,37.68
2019-02-24T09:03:16.433Z,38.71
2019-02-24T09:04:15.508Z,37.57
2019-02-24T09:06:32.695Z,36.73
2019-02-24T09:07:27.679Z,36.42
2019-02-24T09:08:30.678Z,36.32
2019-02-24T09:09:26.878Z,35.60
2019-02-24T09:10:29.661Z,35.08
2019-02-24T09:11:29.696Z,36.01
2019-02-24T09:12:26.779Z,34.96
2019-02-24T09:13:26.766Z,33.83
2019-02-24T09:14:27.259Z,33.42
2019-02-24T09:15:27.217Z,36.61
2019-02-24T09:16:31.278Z,34.86
2019-02-24T09:17:38.528Z,34.33
2019-02-24T09:18:30.558Z,33.71
2019-02-24T09:19:26.686Z,34.84
2019-02-24T09:20:26.693Z,32.89
2019-02-24T09:21:26.659Z,34.22
2019-02-24T09:22:26.638Z,34.74
2019-02-24T09:23:26.635Z,32.57
2019-02-24T09:24:26.878Z,33.61
2019-02-24T09:25:26.996Z,32.57
2019-02-24T09:26:26.641Z,34.72
2019-02-24T09:27:26.595Z,33.59
2019-02-24T09:28:26.595Z,31.93
2019-02-24T09:29:26.567Z,30.79
2019-02-24T09:30:26.625Z,30.38
2019-02-24T09:31:26.549Z,32.96
2019-02-24T09:32:26.533Z,32.03
2019-02-24T09:33:26.654Z,31.21
2019-02-24T09:34:26.516Z,31.72
2019-02-24T09:35:26.506Z,33.26
2019-02-24T09:36:26.495Z,31.91
2019-02-24T09:37:26.691Z,28.92
2019-02-24T09:38:26.603Z,31.71
2019-02-24T09:39:26.466Z,31.19
2019-02-24T09:40:26.452Z,29.75
2019-02-24T09:41:26.594Z,29.64
2019-02-24T09:42:26.453Z,29.64
2019-02-24T09:43:26.460Z,29.96
2019-02-24T09:44:26.447Z,29.54
2019-02-24T09:45:26.417Z,30.26
2019-02-24T09:46:28.190Z,30.46
2019-02-24T09:47:26.474Z,30.66
2019-02-24T09:48:27.333Z,29.53
2019-02-24T09:49:26.387Z,30.25
2019-02-24T09:50:26.351Z,29.93
2019-02-24T09:51:26.342Z,29.82
2019-02-24T09:52:26.499Z,29.93
2019-02-24T09:53:28.323Z,30.13
2019-02-24T09:54:26.300Z,27.97
2019-02-24T09:55:26.295Z,26.74
2019-02-24T09:56:26.280Z,29.72
2019-02-24T09:57:26.270Z,28.49
2019-02-24T09:58:26.275Z,28.80
2019-02-24T09:59:26.543Z,29.72
2019-02-24T10:00:26.808Z,29.00
2019-02-24T10:01:26.254Z,31.35
2019-02-24T10:02:26.251Z,28.90
2019-02-24T10:03:26.198Z,28.47
2019-02-24T10:04:26.204Z,28.99
2019-02-24T10:05:26.432Z,28.27
2019-02-24T10:06:26.163Z,28.78
2019-02-24T10:07:26.156Z,28.16
2019-02-24T10:08:26.143Z,26.31
2019-02-24T10:09:26.169Z,28.36
2019-02-24T10:10:26.337Z,27.22
2019-02-24T10:11:26.123Z,28.14
2019-02-24T10:12:26.103Z,27.32
2019-02-24T10:13:26.512Z,27.31
2019-02-24T10:14:26.083Z,26.29
2019-02-24T10:15:26.193Z,25.97
2019-02-24T10:16:26.579Z,28.74
2019-02-24T10:17:26.140Z,27.31
2019-02-24T10:18:26.037Z,29.15
2019-02-24T10:19:26.226Z,27.10
2019-02-24T10:20:26.200Z,29.55
2019-02-24T10:21:31.149Z,28.23
2019-02-24T10:22:27.181Z,26.78
2019-02-24T10:23:27.144Z,26.47
2019-02-24T10:24:25.989Z,27.18
2019-02-24T10:25:25.982Z,28.94
2019-02-24T10:26:25.987Z,25.33
2019-02-24T10:27:26.150Z,28.51
2019-02-24T10:28:26.027Z,28.82
2019-02-24T10:29:26.057Z,25.43
2019-02-24T10:30:25.937Z,27.18
2019-02-24T10:31:25.893Z,26.05
2019-02-24T10:32:25.901Z,25.73
2019-02-24T10:33:26.045Z,27.68
2019-02-24T10:34:25.861Z,26.25
2019-02-24T10:35:25.853Z,26.23
2019-02-24T10:36:26.012Z,25.72
2019-02-24T10:37:25.851Z,27.25
2019-02-24T10:38:25.822Z,27.47
2019-02-24T10:39:29.631Z,25.32
2019-02-24T10:40:25.825Z,25.21
2019-02-24T10:41:25.939Z,27.15
2019-02-24T10:42:25.779Z,26.45
2019-02-24T10:43:25.787Z,25.62
2019-02-24T10:44:25.759Z,25.41
2019-02-24T10:45:25.745Z,27.76
2019-02-24T10:46:25.733Z,26.13
2019-02-24T10:47:25.869Z,27.04
2019-02-24T10:48:25.714Z,25.20
2019-02-24T10:49:25.714Z,25.20
2019-02-24T10:50:25.693Z,27.14
2019-02-24T10:51:25.677Z,26.01
2019-02-24T10:52:25.667Z,25.60
2019-02-24T10:53:25.803Z,25.50
2019-02-24T10:54:25.655Z,25.40
2019-02-24T10:55:25.652Z,25.18
2019-02-24T10:56:25.621Z,26.31
2019-02-24T10:57:25.616Z,23.75
2019-02-24T10:58:34.318Z,25.58
2019-02-24T10:59:26.647Z,24.15
2019-02-24T11:00:25.657Z,23.01
2019-02-24T11:01:29.724Z,25.67
2019-02-24T11:02:25.561Z,25.36
2019-02-24T11:03:25.551Z,25.35
2019-02-24T11:04:25.541Z,24.33
2019-02-24T11:05:25.523Z,27.19
2019-02-24T11:06:25.664Z,24.74
2019-02-24T11:07:25.551Z,24.33
2019-02-24T11:08:25.496Z,24.63
2019-02-24T11:09:25.493Z,25.25
2019-02-24T11:10:25.475Z,24.52
2019-02-24T11:11:25.460Z,22.68
2019-02-24T11:12:25.602Z,24.10
2019-02-24T11:13:25.455Z,24.30
2019-02-24T11:14:25.431Z,25.33
2019-02-24T11:15:25.425Z,23.59
2019-02-24T11:16:25.406Z,25.43
2019-02-24T11:17:25.414Z,24.92
2019-02-24T11:18:25.530Z,25.63
2019-02-24T11:19:25.417Z,25.53
2019-02-24T11:20:25.369Z,26.35
2019-02-24T11:21:25.352Z,27.17
2019-02-24T11:22:25.547Z,25.02
2019-02-24T11:23:25.332Z,24.41
2019-02-24T11:24:25.428Z,24.41
2019-02-24T11:25:25.349Z,26.04
2019-02-24T11:26:25.307Z,25.74
2019-02-24T11:27:25.289Z,25.23
2019-02-24T11:28:25.279Z,26.04
2019-02-24T11:29:25.291Z,23.39
2019-02-24T11:30:25.456Z,25.12
2019-02-24T11:31:25.268Z,25.32
2019-02-24T11:32:25.250Z,25.73
2019-02-24T11:33:25.251Z,25.73
2019-02-24T11:34:25.216Z,24.60
2019-02-24T11:35:25.210Z,25.42
2019-02-24T11:36:25.194Z,24.90
2019-02-24T11:37:25.196Z,26.44
2019-02-24T11:38:25.386Z,23.68
2019-02-24T11:39:25.165Z,23.38
2019-02-24T11:40:25.151Z,23.89
2019-02-24T11:41:25.354Z,23.99
2019-02-24T11:42:25.138Z,24.19
2019-02-24T11:43:25.126Z,25.21
2019-02-24T11:44:25.123Z,26.23
2019-02-24T11:45:25.113Z,25.61
2019-02-24T11:46:25.113Z,25.81
2019-02-24T11:47:25.073Z,25.61
2019-02-24T11:48:25.072Z,26.22
2019-02-24T11:49:25.070Z,25.31
2019-02-24T11:50:25.219Z,22.45
2019-02-24T11:51:25.031Z,23.88
2019-02-24T11:52:25.018Z,23.36
2019-02-24T11:53:25.216Z,23.16
2019-02-24T11:54:24.997Z,22.13
2019-02-24T11:55:24.990Z,24.58
2019-02-24T11:56:25.000Z,25.40
2019-02-24T11:57:24.969Z,22.03
2019-02-24T11:58:25.001Z,22.22
2019-02-24T11:59:25.185Z,23.05
2019-02-24T12:00:24.931Z,23.86
2019-02-24T12:01:24.922Z,23.86
2019-02-24T12:02:33.958Z,22.54
2019-02-24T12:03:25.918Z,21.52
2019-02-24T12:04:24.887Z,21.83
2019-02-24T12:05:24.879Z,21.62
2019-02-24T12:06:24.870Z,22.33
2019-02-24T12:07:25.064Z,21.52
2019-02-24T12:08:25.101Z,21.83
2019-02-24T12:09:24.831Z,22.73
2019-02-24T12:10:24.824Z,21.61
2019-02-24T12:11:24.811Z,20.79
2019-02-24T12:12:24.806Z,19.47
2019-02-24T12:13:24.786Z,21.50
2019-02-24T12:14:25.307Z,21.19
2019-02-24T12:15:24.767Z,21.50
2019-02-24T12:16:24.754Z,21.50
2019-02-24T12:17:24.742Z,19.67
2019-02-24T12:18:24.760Z,20.67
2019-02-24T12:19:24.725Z,22.10
2019-02-24T12:20:24.732Z,22.00
2019-02-24T12:22:35.896Z,23.23
2019-02-24T12:23:34.891Z,21.30
2019-02-24T12:24:34.906Z,22.01
2019-02-24T12:25:34.968Z,22.92
2019-02-24T12:26:35.244Z,21.91
2019-02-24T12:27:34.860Z,22.82
2019-02-24T12:28:34.866Z,21.19
2019-02-24T12:29:34.910Z,22.62
2019-02-24T12:30:34.917Z,21.80
2019-02-24T12:31:34.820Z,22.21
2019-02-24T12:32:34.914Z,21.89
2019-02-24T12:33:34.800Z,20.87
2019-02-24T12:34:34.788Z,20.78
2019-02-24T12:35:35.015Z,19.65
2019-02-24T12:36:34.757Z,20.47
2019-02-24T12:37:34.742Z,21.19
2019-02-24T12:38:34.749Z,20.98
2019-02-24T12:39:34.719Z,22.09
2019-02-24T12:40:34.857Z,20.05
2019-02-24T12:41:34.697Z,21.37
2019-02-24T12:42:34.687Z,24.02
2019-02-24T12:43:34.681Z,23.00
2019-02-24T12:44:34.684Z,23.82
2019-02-24T12:45:34.661Z,24.13
2019-02-24T12:46:34.746Z,21.49
2019-02-24T12:47:34.636Z,23.21
2019-02-24T12:48:34.626Z,22.50
2019-02-24T12:49:34.629Z,20.67
2019-02-24T12:50:34.611Z,22.10
2019-02-24T12:51:34.592Z,23.43
2019-02-24T12:52:34.724Z,21.78
2019-02-24T12:53:34.574Z,22.71
2019-02-24T12:54:34.565Z,23.12
2019-02-24T12:55:34.722Z,23.73
2019-02-24T12:56:34.537Z,23.31
2019-02-24T12:57:34.529Z,22.60
2019-02-24T12:58:34.618Z,23.82